createdAt,value
2023-01-02T00:00:21.052Z,100921.53
2023-01-02T00:03:23.145Z,100900.84
2023-01-02T00:06:25.325Z,100894.22
2023-01-02T00:09:26.931Z,100878.72
2023-01-02T00:12:28.489Z,100873.78
2023-01-02T00:15:30.023Z,100863.44
2023-01-02T00:18:31.613Z,100859.16
2023-01-02T00:21:33.155Z,100846.16
2023-01-02T00:24:34.677Z,100837.53
2023-01-02T00:27:36.238Z,100830.63
2023-01-02T00:30:39.158Z,100832.50
2023-01-02T00:33:40.747Z,100831.72
2023-01-02T00:36:42.321Z,100827.47
2023-01-02T00:39:44.502Z,100823.94
2023-01-02T00:42:46.107Z,100818.63
2023-01-02T00:45:48.873Z,100815.19
2023-01-02T00:48:50.461Z,100821.41
2023-01-02T00:51:51.998Z,100808.97
2023-01-02T00:54:53.554Z,100799.09
2023-01-02T00:57:55.148Z,100799.19
2023-01-02T01:00:56.778Z,100785.91
2023-01-02T01:03:58.371Z,100792.06
2023-01-02T01:07:00.139Z,100784.00
2023-01-02T01:10:01.668Z,100783.81
2023-01-02T01:13:04.087Z,100780.19
2023-01-02T01:16:12.547Z,100753.44
2023-01-02T01:19:14.197Z,100748.00
2023-01-02T01:22:15.994Z,100752.38
2023-01-02T01:25:17.874Z,100750.47
2023-01-02T01:28:20.151Z,100750.28
2023-01-02T01:31:22.806Z,100744.84
2023-01-02T01:34:24.401Z,100750.00
2023-01-02T01:37:26.085Z,100749.88
2023-01-02T01:40:27.676Z,100737.25
2023-01-02T01:43:43.369Z,100736.19
2023-01-02T01:46:47.798Z,100733.53
2023-01-02T01:50:09.343Z,100736.09
2023-01-02T01:53:18.848Z,100724.41
2023-01-02T01:56:20.569Z,100725.25
2023-01-02T01:59:22.279Z,100732.09
2023-01-02T02:02:24.415Z,100735.50
2023-01-02T02:05:30.375Z,100721.16
2023-01-02T02:08:36.180Z,100737.75
2023-01-02T02:11:38.367Z,100728.72
2023-01-02T02:14:40.129Z,100716.28
2023-01-02T02:17:41.703Z,100710.84
2023-01-02T02:20:55.547Z,100706.31
2023-01-02T02:24:29.699Z,100704.41
2023-01-02T02:27:56.006Z,100707.06
2023-01-02T02:31:15.836Z,100705.34
2023-01-02T02:34:27.366Z,100698.09
2023-01-02T02:37:56.987Z,100692.59
2023-01-02T02:41:26.295Z,100684.53
2023-01-02T02:45:11.183Z,100677.31
2023-01-02T02:48:49.693Z,100670.91
2023-01-02T02:51:56.374Z,100669.00
2023-01-02T02:55:00.821Z,100674.13
2023-01-02T02:58:02.484Z,100666.03
2023-01-02T03:01:13.405Z,100679.25
2023-01-02T03:04:19.694Z,100661.38
2023-01-02T03:07:35.769Z,100665.72
2023-01-02T03:10:37.283Z,100656.78
2023-01-02T03:13:50.719Z,100656.78
2023-01-02T03:17:01.303Z,100652.22
2023-01-02T03:20:13.164Z,100652.22
2023-01-02T03:23:26.259Z,100642.31
2023-01-02T03:26:31.829Z,100641.25
2023-01-02T03:29:44.179Z,100633.19
2023-01-02T03:33:02.986Z,100625.94
2023-01-02T03:36:10.153Z,100632.94
2023-01-02T03:39:17.002Z,100630.94
2023-01-02T03:42:28.112Z,100637.97
2023-01-02T03:45:37.652Z,100630.53
2023-01-02T03:48:39.247Z,100642.78
2023-01-02T03:51:41.871Z,100642.53
2023-01-02T03:54:43.622Z,100642.34
2023-01-02T03:57:48.822Z,100650.13
2023-01-02T04:01:04.632Z,100640.94
2023-01-02T04:04:12.316Z,100654.06
2023-01-02T04:07:22.539Z,100645.00
2023-01-02T04:10:25.349Z,100654.59
2023-01-02T04:13:32.990Z,100650.84
2023-01-02T04:16:36.416Z,100641.97
2023-01-02T04:19:55.177Z,100648.03
2023-01-02T04:23:06.053Z,100642.50
2023-01-02T04:26:11.941Z,100643.31
2023-01-02T04:29:13.662Z,100634.25
2023-01-02T04:32:48.233Z,100635.03
2023-01-02T04:35:50.078Z,100634.91
2023-01-02T04:38:51.805Z,100640.13
2023-01-02T04:41:53.390Z,100627.56
2023-01-02T04:44:54.973Z,100633.63
2023-01-02T04:47:56.491Z,100629.03
2023-01-02T04:50:58.210Z,100636.81
2023-01-02T04:53:59.736Z,100628.72
2023-01-02T04:57:01.319Z,100627.75
2023-01-02T05:00:05.408Z,100625.84
2023-01-02T05:03:06.967Z,100625.84
2023-01-02T05:06:09.223Z,100623.03
2023-01-02T05:09:10.982Z,100626.44
2023-01-02T05:12:12.538Z,100624.66
2023-01-02T05:15:14.100Z,100622.84
2023-01-02T05:18:15.653Z,100622.72
2023-01-02T05:21:35.962Z,100628.03
2023-01-02T05:24:37.482Z,100624.44
2023-01-02T05:27:39.107Z,100627.09
2023-01-02T05:30:40.706Z,100624.31
2023-01-02T05:33:42.305Z,100625.06
2023-01-02T05:36:44.001Z,100620.47
2023-01-02T05:39:45.538Z,100628.34
2023-01-02T05:42:47.047Z,100626.66
2023-01-02T05:45:48.590Z,100621.75
2023-01-02T05:48:50.164Z,100618.13
2023-01-02T05:51:51.822Z,100615.34
2023-01-02T05:54:53.405Z,100619.59
2023-01-02T05:57:56.182Z,100619.47
2023-01-02T06:01:03.923Z,100621.88
2023-01-02T06:04:05.501Z,100630.53
2023-01-02T06:07:07.037Z,100624.94
2023-01-02T06:10:09.151Z,100624.94
2023-01-02T06:13:10.666Z,100620.47
2023-01-02T06:16:12.455Z,100617.81
2023-01-02T06:19:14.016Z,100626.66
2023-01-02T06:22:15.566Z,100615.25
2023-01-02T06:25:17.171Z,100619.72
2023-01-02T06:28:18.764Z,100624.13
2023-01-02T06:31:22.091Z,100622.41
2023-01-02T06:34:23.657Z,100622.41
2023-01-02T06:37:25.214Z,100620.59
2023-01-02T06:40:26.791Z,100621.44
2023-01-02T06:43:29.715Z,100620.47
2023-01-02T06:46:31.330Z,100621.44
2023-01-02T06:49:32.875Z,100628.47
2023-01-02T06:52:34.490Z,100633.78
2023-01-02T06:55:36.063Z,100632.72
2023-01-02T06:58:38.857Z,100639.63
2023-01-02T07:01:40.574Z,100633.44
2023-01-02T07:04:42.225Z,100633.44
2023-01-02T07:07:43.821Z,100628.03
2023-01-02T07:10:49.442Z,100622.56
2023-01-02T07:13:55.010Z,100616.38
2023-01-02T07:16:56.565Z,100619.91
2023-01-02T07:20:01.986Z,100613.72
2023-01-02T07:23:04.184Z,100620.88
2023-01-02T07:26:07.442Z,100621.22
2023-01-02T07:29:09.254Z,100623.97
2023-01-02T07:32:10.847Z,100619.63
2023-01-02T07:35:12.638Z,100625.06
2023-01-02T07:38:14.195Z,100637.56
2023-01-02T07:41:17.956Z,100629.66
2023-01-02T07:44:19.499Z,100637.78
2023-01-02T07:47:21.122Z,100640.53
2023-01-02T07:50:22.678Z,100649.53
2023-01-02T07:53:25.558Z,100648.66
2023-01-02T07:56:27.203Z,100648.78
2023-01-02T07:59:28.769Z,100651.47
2023-01-02T08:02:30.624Z,100656.53
2023-01-02T08:05:34.036Z,100668.06
2023-01-02T08:08:36.250Z,100670.84
2023-01-02T08:11:37.842Z,100674.47
2023-01-02T08:14:39.462Z,100673.63
2023-01-02T08:17:41.546Z,100663.06
2023-01-02T08:20:43.207Z,100685.34
2023-01-02T08:23:44.804Z,100664.16
2023-01-02T08:26:46.334Z,100681.97
2023-01-02T08:29:47.916Z,100684.75
2023-01-02T08:32:49.527Z,100688.38
2023-01-02T08:35:51.124Z,100684.88
2023-01-02T08:38:52.804Z,100692.88
2023-01-02T08:41:54.341Z,100693.81
2023-01-02T08:44:55.957Z,100688.50
2023-01-02T08:47:57.553Z,100698.19
2023-01-02T08:50:59.073Z,100699.88
2023-01-02T08:54:00.646Z,100698.19
2023-01-02T08:57:02.488Z,100705.22
2023-01-02T09:00:04.873Z,100710.56
2023-01-02T09:03:06.536Z,100721.13
2023-01-02T09:06:08.102Z,100731.66
2023-01-02T09:09:12.899Z,100728.16
2023-01-02T09:12:14.635Z,100742.34
2023-01-02T09:15:16.172Z,100723.53
2023-01-02T09:18:17.684Z,100740.41
2023-01-02T09:21:19.309Z,100745.72
2023-01-02T09:24:20.918Z,100746.69
2023-01-02T09:27:22.537Z,100752.88
2023-01-02T09:30:24.694Z,100756.41
2023-01-02T09:33:26.507Z,100748.53
2023-01-02T09:36:28.387Z,100755.50
2023-01-02T09:39:32.623Z,100770.28
2023-01-02T09:42:34.905Z,100768.50
2023-01-02T09:45:42.108Z,100757.06
2023-01-02T09:48:43.793Z,100773.75
2023-01-02T09:51:45.777Z,100780.63
2023-01-02T09:54:47.464Z,100790.28
2023-01-02T09:58:02.451Z,100806.72
2023-01-02T10:01:09.184Z,100828.69
2023-01-02T10:04:29.877Z,100850.56
2023-01-02T10:07:37.662Z,100854.63
2023-01-02T10:11:04.126Z,100866.78
2023-01-02T10:14:34.794Z,100875.66
2023-01-02T10:17:46.408Z,100903.16
2023-01-02T10:20:54.572Z,100911.88
2023-01-02T10:24:19.081Z,100914.44
2023-01-02T10:27:30.956Z,100919.59
2023-01-02T10:30:38.219Z,100934.50
2023-01-02T10:33:47.490Z,100950.34
2023-01-02T10:36:50.106Z,100957.06
2023-01-02T10:39:51.821Z,100961.94
2023-01-02T10:42:59.768Z,100968.72
2023-01-02T10:46:03.637Z,100982.63
2023-01-02T10:49:07.962Z,100985.75
2023-01-02T10:52:25.148Z,100984.34
2023-01-02T10:55:32.812Z,100993.66
2023-01-02T10:58:35.397Z,101001.19
2023-01-02T11:01:59.235Z,101023.59
2023-01-02T11:05:02.909Z,101025.84
2023-01-02T11:08:13.614Z,101028.97
2023-01-02T11:11:17.646Z,101023.13
2023-01-02T11:14:32.061Z,101030.41
2023-01-02T11:17:44.348Z,101040.47
2023-01-02T11:20:53.457Z,101047.19
2023-01-02T11:24:15.739Z,101060.84
2023-01-02T11:27:17.363Z,101062.81
2023-01-02T11:30:44.163Z,101066.78
2023-01-02T11:33:46.886Z,101076.94
2023-01-02T11:37:05.193Z,101075.38
2023-01-02T11:40:26.142Z,101085.25
2023-01-02T11:43:50.299Z,101107.63
2023-01-02T11:46:53.432Z,101092.72
2023-01-02T11:49:55.061Z,101099.06
2023-01-02T11:53:02.395Z,101094.66
2023-01-02T11:56:14.018Z,101100.09
2023-01-02T11:59:28.081Z,101097.59
2023-01-02T12:02:39.834Z,101106.75
2023-01-02T12:06:06.341Z,101110.53
2023-01-02T12:09:30.329Z,101126.59
2023-01-02T12:12:31.829Z,101134.56
2023-01-02T12:15:42.746Z,101124.75
2023-01-02T12:19:11.018Z,101132.84
2023-01-02T12:22:33.766Z,101134.72
2023-01-02T12:25:50.594Z,101139.34
2023-01-02T12:29:04.323Z,101150.94
2023-01-02T12:32:14.773Z,101160.84
2023-01-02T12:35:50.312Z,101165.28
2023-01-02T12:39:14.843Z,101188.44
2023-01-02T12:42:31.665Z,101193.75
2023-01-02T12:45:48.400Z,101208.91
2023-01-02T12:49:04.422Z,101202.91
2023-01-02T12:52:17.492Z,101212.25
2023-01-02T12:55:37.857Z,101204.13
2023-01-02T12:58:54.609Z,101210.38
2023-01-02T13:02:06.003Z,101215.00
2023-01-02T13:05:14.244Z,101202.75
2023-01-02T13:08:26.176Z,101214.38
2023-01-02T13:11:33.851Z,101216.53
2023-01-02T13:14:40.229Z,101225.34
2023-01-02T13:17:44.587Z,101229.03
2023-01-02T13:21:01.687Z,101240.03
2023-01-02T13:24:04.022Z,101250.50
2023-01-02T13:27:05.842Z,101237.31
2023-01-02T13:30:07.814Z,101241.06
2023-01-02T13:33:35.895Z,101249.28
2023-01-02T13:36:41.176Z,101257.50
2023-01-02T13:39:42.662Z,101261.16
2023-01-02T13:42:59.603Z,101268.44
2023-01-02T13:46:01.584Z,101265.09
2023-01-02T13:49:09.788Z,101268.88
2023-01-02T13:52:16.884Z,101273.47
2023-01-02T13:55:21.178Z,101283.38
2023-01-02T13:58:48.714Z,101295.13
2023-01-02T14:02:21.416Z,101293.63
2023-01-02T14:05:57.641Z,101294.72
2023-01-02T14:09:05.134Z,101287.06
2023-01-02T14:12:12.929Z,101294.34
2023-01-02T14:15:21.266Z,101301.59
2023-01-02T14:18:32.755Z,101297.25
2023-01-02T14:21:41.962Z,101304.41
2023-01-02T14:24:46.854Z,101299.09
2023-01-02T14:27:54.981Z,101303.63
2023-01-02T14:30:57.929Z,101304.50
2023-01-02T14:34:00.849Z,101313.38
2023-01-02T14:37:03.146Z,101312.47
2023-01-02T14:40:22.958Z,101323.94
2023-01-02T14:43:36.526Z,101329.25
2023-01-02T14:46:38.321Z,101337.25
2023-01-02T14:49:42.080Z,101341.66
2023-01-02T14:52:51.750Z,101345.22
2023-01-02T14:55:59.148Z,101348.06
2023-01-02T14:59:02.806Z,101352.41
2023-01-02T15:02:16.292Z,101360.88
2023-01-02T15:05:32.175Z,101372.97
2023-01-02T15:08:53.911Z,101378.34
2023-01-02T15:12:17.492Z,101385.63
2023-01-02T15:15:24.324Z,101378.72
2023-01-02T15:18:30.915Z,101373.66
2023-01-02T15:21:39.682Z,101370.31
2023-01-02T15:24:47.394Z,101374.88
2023-01-02T15:27:53.461Z,101371.50
2023-01-02T15:31:04.520Z,101377.91
2023-01-02T15:34:06.139Z,101379.06
2023-01-02T15:37:07.710Z,101370.47
2023-01-02T15:40:16.097Z,101378.53
2023-01-02T15:43:36.318Z,101384.91
2023-01-02T15:46:38.360Z,101381.00
2023-01-02T15:49:42.809Z,101386.94
2023-01-02T15:52:46.548Z,101393.13
2023-01-02T15:55:48.308Z,101406.50
2023-01-02T15:58:50.487Z,101405.72
2023-01-02T16:01:52.317Z,101407.56
2023-01-02T16:05:10.651Z,101408.38
2023-01-02T16:08:23.344Z,101402.88
2023-01-02T16:11:25.686Z,101413.69
2023-01-02T16:14:44.405Z,101407.50
2023-01-02T16:17:46.974Z,101415.63
2023-01-02T16:20:49.489Z,101416.72
2023-01-02T16:23:54.651Z,101414.97
2023-01-02T16:26:56.295Z,101416.78
2023-01-02T16:29:58.534Z,101423.03
2023-01-02T16:33:02.722Z,101423.03
2023-01-02T16:36:04.227Z,101433.66
2023-01-02T16:40:00.901Z,101434.50
2023-01-02T16:43:03.334Z,101439.09
2023-01-02T16:46:10.640Z,101437.47
2023-01-02T16:49:16.215Z,101436.75
2023-01-02T16:52:17.989Z,101437.69
2023-01-02T16:55:22.129Z,101434.94
2023-01-02T16:58:25.428Z,101431.53
2023-01-02T17:01:27.065Z,101444.88
2023-01-02T17:04:28.629Z,101460.09
2023-01-02T17:07:30.167Z,101470.78
2023-01-02T17:10:31.901Z,101476.16
2023-01-02T17:13:33.532Z,101484.88
2023-01-02T17:16:35.119Z,101475.88
2023-01-02T17:19:36.742Z,101482.88
2023-01-02T17:22:39.193Z,101489.91
2023-01-02T17:25:45.459Z,101490.78
2023-01-02T17:28:47.018Z,101494.38
2023-01-02T17:31:48.642Z,101496.16
2023-01-02T17:34:50.430Z,101495.13
2023-01-02T17:37:52.028Z,101503.09
2023-01-02T17:40:58.322Z,101512.03
2023-01-02T17:44:02.458Z,101508.59
2023-01-02T17:47:38.910Z,101511.38
2023-01-02T17:50:26.938Z,101530.09
2023-01-02T17:53:28.479Z,101523.22
2023-01-02T17:56:31.007Z,101525.06
2023-01-02T17:59:34.394Z,101533.19
2023-01-02T18:02:36.121Z,101536.91
2023-01-02T18:05:37.928Z,101537.03
2023-01-02T18:08:39.494Z,101540.78
2023-01-02T18:11:41.128Z,101552.47
2023-01-02T18:14:45.590Z,101557.19
2023-01-02T18:17:47.918Z,101560.91
2023-01-02T18:20:49.478Z,101562.78
2023-01-02T18:23:56.096Z,101562.00
2023-01-02T18:27:24.313Z,101571.00
2023-01-02T18:30:26.703Z,101571.22
2023-01-02T18:33:28.695Z,101581.00
2023-01-02T18:36:31.612Z,101585.44
2023-01-02T18:39:42.613Z,101592.53
2023-01-02T18:42:46.752Z,101602.22
2023-01-02T18:45:51.780Z,101596.00
2023-01-02T18:48:54.634Z,101600.38
2023-01-02T18:52:11.506Z,101606.56
2023-01-02T18:55:13.043Z,101614.50
2023-01-02T18:58:38.035Z,101614.59
2023-01-02T19:01:45.250Z,101616.38
2023-01-02T19:04:46.907Z,101623.47
2023-01-02T19:07:48.546Z,101631.44
2023-01-02T19:10:58.149Z,101643.34
2023-01-02T19:13:59.719Z,101643.59
2023-01-02T19:17:26.905Z,101645.31
2023-01-02T19:20:28.451Z,101650.75
2023-01-02T19:23:57.995Z,101655.44
2023-01-02T19:26:59.837Z,101670.09
2023-01-02T19:30:02.477Z,101667.91
2023-01-02T19:33:31.716Z,101679.84
2023-01-02T19:36:37.527Z,101685.47
2023-01-02T19:39:51.064Z,101684.97
2023-01-02T19:42:54.302Z,101688.91
2023-01-02T19:45:55.992Z,101696.31
2023-01-02T19:48:57.631Z,101698.38
2023-01-02T19:51:59.235Z,101710.94
2023-01-02T19:55:00.838Z,101717.44
2023-01-02T19:58:05.687Z,101713.34
2023-01-02T20:01:07.386Z,101716.22
2023-01-02T20:04:08.975Z,101707.66
2023-01-02T20:07:11.134Z,101720.22
2023-01-02T20:10:13.846Z,101729.22
2023-01-02T20:13:15.413Z,101723.16
2023-01-02T20:16:17.220Z,101728.59
2023-01-02T20:19:18.784Z,101736.66
2023-01-02T20:22:20.807Z,101742.94
2023-01-02T20:25:25.386Z,101751.91
2023-01-02T20:28:26.930Z,101759.22
2023-01-02T20:31:28.529Z,101762.97
2023-01-02T20:34:30.119Z,101766.59
2023-01-02T20:37:31.722Z,101777.25
2023-01-02T20:40:33.305Z,101787.06
2023-01-02T20:43:34.858Z,101786.25
2023-01-02T20:46:36.894Z,101793.50
2023-01-02T20:49:39.399Z,101805.94
2023-01-02T20:52:40.988Z,101810.47
2023-01-02T20:55:42.672Z,101808.84
2023-01-02T20:58:44.436Z,101818.66
2023-01-02T21:01:46.214Z,101820.59
2023-01-02T21:04:47.918Z,101826.84
2023-01-02T21:07:49.549Z,101833.13
2023-01-02T21:10:51.128Z,101842.03
2023-01-02T21:13:52.685Z,101844.75
2023-01-02T21:16:54.793Z,101850.13
2023-01-02T21:19:56.342Z,101854.56
2023-01-02T21:22:57.953Z,101858.19
2023-01-02T21:25:59.865Z,101871.44
2023-01-02T21:29:03.045Z,101874.19
2023-01-02T21:32:04.750Z,101871.53
2023-01-02T21:35:07.479Z,101884.75
2023-01-02T21:38:10.115Z,101881.25
2023-01-02T21:41:30.267Z,101881.38
2023-01-02T21:44:31.860Z,101891.13
2023-01-02T21:47:33.423Z,101899.03
2023-01-02T21:50:35.077Z,101901.69
2023-01-02T21:53:36.663Z,101903.53
2023-01-02T21:56:38.198Z,101920.28
2023-01-02T21:59:39.833Z,101919.47
2023-01-02T22:02:42.027Z,101925.72
2023-01-02T22:05:43.635Z,101934.56
2023-01-02T22:08:45.201Z,101933.66
2023-01-02T22:11:55.929Z,101935.44
2023-01-02T22:14:57.638Z,101941.69
2023-01-02T22:17:59.230Z,101955.94
2023-01-02T22:21:00.821Z,101961.22
2023-01-02T22:24:02.422Z,101963.06
2023-01-02T22:27:05.913Z,101970.13
2023-01-02T22:30:31.410Z,101966.59
2023-01-02T22:33:29.985Z,101964.00
2023-01-02T22:36:31.690Z,101972.78
2023-01-02T22:39:33.222Z,101973.72
2023-01-02T22:43:10.109Z,101975.53
2023-01-02T22:46:22.379Z,101983.50
2023-01-02T22:49:27.153Z,101985.25
2023-01-02T22:52:30.424Z,101992.19
2023-01-02T22:55:31.972Z,102001.03
2023-01-02T22:58:33.553Z,102003.72
2023-01-02T23:01:38.249Z,101997.53
2023-01-02T23:04:40.051Z,101999.34
2023-01-02T23:07:41.634Z,101996.72
2023-01-02T23:10:43.249Z,102007.38
2023-01-02T23:13:45.438Z,102001.28
2023-01-02T23:17:05.769Z,102008.84
2023-01-02T23:20:07.835Z,102010.66
2023-01-02T23:23:09.565Z,102023.03
2023-01-02T23:26:14.780Z,102023.25
2023-01-02T23:29:17.489Z,102026.91
2023-01-02T23:32:19.127Z,102034.13
2023-01-02T23:35:20.692Z,102034.31
2023-01-02T23:38:22.271Z,102037.03
2023-01-02T23:41:23.809Z,102038.88
2023-01-02T23:44:26.511Z,102039.91
2023-01-02T23:47:28.132Z,102047.09
2023-01-02T23:50:29.652Z,102045.41
2023-01-02T23:53:32.172Z,102056.09
2023-01-02T23:56:36.396Z,102050.97
2023-01-02T23:59:37.950Z,102050.22
